createdAt,value
2019-05-18T00:02:16.242Z,13.70
2019-05-18T00:04:42.204Z,14.33
2019-05-18T00:07:08.049Z,14.18
2019-05-18T00:09:33.876Z,13.58
2019-05-18T00:11:59.723Z,14.87
2019-05-18T00:14:25.579Z,14.75
2019-05-18T00:16:51.423Z,14.38
2019-05-18T00:19:17.241Z,14.98
2019-05-18T00:21:43.106Z,15.48
2019-05-18T00:24:09.252Z,13.95
2019-05-18T00:26:35.185Z,15.43
2019-05-18T00:29:01.008Z,14.68
2019-05-18T00:31:26.850Z,14.23
2019-05-18T00:33:52.679Z,15.23
2019-05-18T00:36:18.555Z,15.20
2019-05-18T00:38:44.403Z,15.30
2019-05-18T00:41:10.224Z,15.03
2019-05-18T00:43:36.048Z,15.75
2019-05-18T00:46:02.987Z,16.12
2019-05-18T00:48:28.815Z,15.58
2019-05-18T00:50:54.691Z,15.53
2019-05-18T00:53:20.515Z,15.90
2019-05-18T00:55:46.347Z,16.70
2019-05-18T00:58:12.192Z,15.70
2019-05-18T01:00:38.016Z,16.42
2019-05-18T01:03:03.860Z,16.27
2019-05-18T01:05:29.793Z,15.95
2019-05-18T01:07:55.633Z,15.43
2019-05-18T01:10:21.451Z,16.02
2019-05-18T01:12:47.338Z,15.83
2019-05-18T01:15:13.503Z,15.72
2019-05-18T01:17:39.361Z,17.70
2019-05-18T01:20:05.813Z,16.35
2019-05-18T01:22:31.717Z,17.05
2019-05-18T01:24:58.655Z,16.75
2019-05-18T01:27:24.599Z,16.12
2019-05-18T01:29:50.475Z,19.20
2019-05-18T01:32:16.446Z,16.87
2019-05-18T01:34:42.316Z,17.45
2019-05-18T01:37:08.233Z,17.60
2019-05-18T01:39:34.060Z,16.67
2019-05-18T01:41:59.941Z,18.23
2019-05-18T01:44:25.851Z,18.75
2019-05-18T01:46:51.696Z,16.25
2019-05-18T01:49:17.538Z,18.12
2019-05-18T01:51:43.365Z,18.20
2019-05-18T01:54:09.229Z,19.20
2019-05-18T01:56:35.194Z,17.62
2019-05-18T01:59:01.049Z,18.17
2019-05-18T02:01:26.883Z,19.02
2019-05-18T02:03:52.775Z,19.45
2019-05-18T02:06:18.638Z,20.97
2019-05-18T02:08:44.552Z,19.17
2019-05-18T02:11:10.378Z,19.25
2019-05-18T02:13:36.319Z,18.62
2019-05-18T02:16:02.234Z,18.70
2019-05-18T02:18:29.273Z,19.52
2019-05-18T02:20:55.244Z,19.82
2019-05-18T02:23:21.205Z,18.52
2019-05-18T02:25:47.133Z,21.87
2019-05-18T02:28:13.095Z,18.42
2019-05-18T02:30:39.110Z,19.90
2019-05-18T02:33:05.071Z,19.50
2019-05-18T02:35:31.062Z,20.30
2019-05-18T02:37:58.947Z,20.37
2019-05-18T02:40:25.201Z,20.25
2019-05-18T02:42:51.067Z,21.20
2019-05-18T02:45:17.010Z,21.40
2019-05-18T02:47:42.962Z,18.90
2019-05-18T02:50:09.106Z,22.05
2019-05-18T02:52:34.950Z,20.37
2019-05-18T02:55:00.833Z,21.57
2019-05-18T02:57:27.359Z,21.10
2019-05-18T02:59:53.406Z,20.63
2019-05-18T03:02:19.267Z,21.02
2019-05-18T03:04:45.218Z,21.45
2019-05-18T03:07:11.054Z,22.93
2019-05-18T03:09:36.954Z,21.15
2019-05-18T03:12:02.806Z,21.93
2019-05-18T03:14:28.850Z,22.27
2019-05-18T03:16:54.783Z,23.32
2019-05-18T03:19:20.612Z,20.82
2019-05-18T03:21:46.436Z,22.15
2019-05-18T03:24:12.304Z,21.52
2019-05-18T03:26:38.127Z,22.07
2019-05-18T03:29:03.962Z,22.65
2019-05-18T03:31:29.827Z,21.65
2019-05-18T03:33:55.659Z,22.00
2019-05-18T03:36:21.602Z,21.62
2019-05-18T03:38:47.444Z,22.45
2019-05-18T03:41:13.322Z,20.97
2019-05-18T03:43:39.247Z,21.05
2019-05-18T03:46:05.106Z,21.60
2019-05-18T03:48:31.022Z,20.77
2019-05-18T03:50:56.906Z,21.77
2019-05-18T03:53:22.833Z,23.75
2019-05-18T03:55:48.714Z,23.75
2019-05-18T03:58:14.751Z,20.62
2019-05-18T04:00:41.695Z,22.32
2019-05-18T04:03:07.672Z,23.27
2019-05-18T04:05:33.620Z,24.87
2019-05-18T04:07:59.463Z,23.67
2019-05-18T04:10:25.914Z,21.50
2019-05-18T04:12:51.947Z,24.43
2019-05-18T04:15:17.797Z,24.57
2019-05-18T04:17:43.615Z,24.37
2019-05-18T04:20:09.702Z,23.73
2019-05-18T04:22:35.527Z,23.40
2019-05-18T04:25:01.377Z,23.57
2019-05-18T04:27:27.210Z,22.42
2019-05-18T04:29:53.073Z,21.62
2019-05-18T04:32:18.997Z,22.77
2019-05-18T04:34:44.938Z,21.73
2019-05-18T04:37:10.751Z,22.77
2019-05-18T04:39:36.967Z,21.97
2019-05-18T04:42:02.915Z,23.30
2019-05-18T04:44:28.883Z,22.32
2019-05-18T04:46:54.747Z,23.77
2019-05-18T04:49:20.619Z,22.67
2019-05-18T04:51:46.568Z,23.47
2019-05-18T04:54:12.555Z,25.02
2019-05-18T04:56:42.156Z,22.82
2019-05-18T04:59:06.616Z,22.20
2019-05-18T05:01:33.001Z,25.25
2019-05-18T05:03:59.192Z,22.70
2019-05-18T05:06:25.416Z,23.25
2019-05-18T05:08:51.442Z,24.07
2019-05-18T05:11:17.617Z,21.95
2019-05-18T05:13:43.871Z,23.87
2019-05-18T05:16:11.018Z,22.00
2019-05-18T05:18:36.891Z,22.77
2019-05-18T05:21:02.745Z,23.70
2019-05-18T05:23:28.615Z,23.18
2019-05-18T05:25:54.526Z,24.10
2019-05-18T05:28:20.444Z,23.18
2019-05-18T05:30:46.311Z,20.70
2019-05-18T05:33:12.249Z,22.42
2019-05-18T05:35:38.487Z,21.12
2019-05-18T05:38:04.422Z,20.50
2019-05-18T05:40:30.263Z,20.92
2019-05-18T05:42:56.111Z,21.73
2019-05-18T05:45:22.488Z,20.43
2019-05-18T05:47:48.311Z,21.45
2019-05-18T05:50:16.147Z,21.52
2019-05-18T05:52:42.118Z,20.25
2019-05-18T05:55:08.024Z,19.60
2019-05-18T05:57:33.945Z,19.10
2019-05-18T05:59:59.798Z,18.55
2019-05-18T06:02:25.652Z,19.73
2019-05-18T06:04:51.523Z,19.20
2019-05-18T06:07:17.504Z,17.57
2019-05-18T06:09:43.354Z,20.50
2019-05-18T06:12:09.199Z,19.20
2019-05-18T06:14:35.046Z,16.57
2019-05-18T06:17:00.985Z,17.30
2019-05-18T06:19:27.075Z,20.35
2019-05-18T06:21:53.125Z,17.87
2019-05-18T06:24:19.078Z,16.10
2019-05-18T06:26:44.955Z,15.48
2019-05-18T06:29:10.822Z,14.95
2019-05-18T06:31:36.738Z,14.07
2019-05-18T06:34:02.568Z,12.47
2019-05-18T06:36:28.545Z,13.50
2019-05-18T06:38:54.434Z,14.53
2019-05-18T06:41:20.420Z,12.80
2019-05-18T06:43:46.271Z,13.53
2019-05-18T06:46:12.156Z,15.05
2019-05-18T06:48:38.034Z,14.75
2019-05-18T06:51:07.254Z,13.25
2019-05-18T06:53:31.678Z,12.65
2019-05-18T06:55:57.732Z,12.90
2019-05-18T06:58:24.400Z,13.85
2019-05-18T07:00:50.342Z,15.03
2019-05-18T07:03:16.201Z,11.15
2019-05-18T07:05:42.103Z,11.45
2019-05-18T07:08:08.052Z,8.73
2019-05-18T07:10:33.911Z,10.15
2019-05-18T07:12:59.842Z,10.70
2019-05-18T07:15:25.706Z,11.63
2019-05-18T07:17:51.562Z,11.83
2019-05-18T07:20:17.414Z,10.20
2019-05-18T07:22:45.254Z,11.00
2019-05-18T07:25:11.278Z,10.25
2019-05-18T07:27:37.129Z,8.38
2019-05-18T07:30:07.706Z,8.98
2019-05-18T07:32:33.657Z,9.63
2019-05-18T07:34:59.606Z,9.28
2019-05-18T07:37:25.480Z,10.35
2019-05-18T07:39:51.390Z,9.43
2019-05-18T07:42:17.302Z,10.18
2019-05-18T07:44:43.235Z,9.05
2019-05-18T07:47:09.074Z,8.33
2019-05-18T07:49:34.907Z,7.45
2019-05-18T07:52:00.739Z,7.50
2019-05-18T07:54:26.598Z,11.33
2019-05-18T07:56:52.513Z,8.70
2019-05-18T07:59:19.993Z,8.43
2019-05-18T08:01:46.000Z,8.73
2019-05-18T08:04:11.872Z,7.35
2019-05-18T08:06:37.711Z,8.10
2019-05-18T08:09:05.954Z,8.03
2019-05-18T08:11:38.918Z,8.80
2019-05-18T08:14:04.980Z,7.92
2019-05-18T08:16:30.828Z,8.13
2019-05-18T08:18:58.190Z,10.18
2019-05-18T08:21:24.304Z,9.60
2019-05-18T08:23:50.166Z,8.73
2019-05-18T08:26:16.118Z,9.45
2019-05-18T08:28:41.976Z,8.23
2019-05-18T08:31:07.922Z,8.08
2019-05-18T08:33:33.786Z,8.70
2019-05-18T08:35:59.606Z,8.53
2019-05-18T08:38:25.478Z,9.48
2019-05-18T08:40:51.391Z,9.10
2019-05-18T08:43:17.263Z,7.12
2019-05-18T08:45:43.144Z,7.17
2019-05-18T08:48:08.991Z,8.00
2019-05-18T08:50:34.879Z,8.00
2019-05-18T08:53:00.723Z,7.40
2019-05-18T08:55:26.589Z,8.20
2019-05-18T08:57:52.426Z,7.55
2019-05-18T09:00:18.384Z,7.65
2019-05-18T09:02:44.208Z,7.62
2019-05-18T09:05:10.154Z,6.92
2019-05-18T09:07:36.922Z,7.60
2019-05-18T09:10:04.687Z,8.95
2019-05-18T09:12:30.551Z,10.13
2019-05-18T09:14:56.543Z,9.40
2019-05-18T09:17:22.499Z,8.23
2019-05-18T09:19:48.631Z,7.37
2019-05-18T09:22:22.922Z,7.20
2019-05-18T09:24:42.215Z,8.48
2019-05-18T09:27:10.697Z,8.50
2019-05-18T09:29:36.717Z,8.70
2019-05-18T09:32:02.851Z,8.15
2019-05-18T09:34:28.691Z,7.85
2019-05-18T09:36:54.544Z,6.92
2019-05-18T09:39:20.396Z,8.03
2019-05-18T09:41:46.437Z,7.72
2019-05-18T09:44:12.280Z,7.22
2019-05-18T09:46:38.171Z,7.80
2019-05-18T09:49:04.125Z,6.08
2019-05-18T09:51:30.031Z,8.48
2019-05-18T09:53:55.946Z,6.72
2019-05-18T09:56:24.077Z,8.70
2019-05-18T09:58:49.911Z,6.17
2019-05-18T10:01:15.767Z,7.00
2019-05-18T10:03:41.583Z,6.67
2019-05-18T10:06:07.468Z,7.78
2019-05-18T10:08:33.404Z,7.40
2019-05-18T10:10:59.247Z,6.87
2019-05-18T10:13:25.118Z,7.75
2019-05-18T10:15:51.055Z,7.90
2019-05-18T10:18:16.920Z,8.93
2019-05-18T10:20:43.083Z,10.18
2019-05-18T10:23:12.811Z,6.60
2019-05-18T10:25:38.865Z,6.10
2019-05-18T10:28:04.704Z,6.65
2019-05-18T10:30:30.559Z,7.12
2019-05-18T10:32:56.380Z,7.53
2019-05-18T10:35:22.256Z,7.15
2019-05-18T10:37:48.240Z,6.40
2019-05-18T10:40:14.271Z,6.55
2019-05-18T10:42:40.422Z,6.25
2019-05-18T10:45:07.021Z,6.25
2019-05-18T10:47:32.977Z,6.67
2019-05-18T10:52:34.154Z,7.17
2019-05-18T10:55:00.164Z,7.85
2019-05-18T10:57:26.149Z,8.15
2019-05-18T10:59:51.978Z,8.15
2019-05-18T11:02:17.827Z,7.85
2019-05-18T11:04:43.655Z,9.33
2019-05-18T11:07:09.561Z,7.55
2019-05-18T11:09:35.408Z,8.30
2019-05-18T11:12:01.338Z,7.33
2019-05-18T11:14:27.194Z,6.85
2019-05-18T11:16:53.100Z,8.08
2019-05-18T11:19:19.028Z,6.62
2019-05-18T11:21:44.888Z,7.47
2019-05-18T11:24:10.807Z,7.67
2019-05-18T11:26:36.679Z,7.33
2019-05-18T11:29:04.858Z,8.83
2019-05-18T11:31:31.011Z,8.55
2019-05-18T11:33:56.924Z,11.18
2019-05-18T11:36:22.771Z,7.42
2019-05-18T11:38:48.620Z,7.47
2019-05-18T11:41:14.450Z,7.25
2019-05-18T11:43:40.336Z,6.97
2019-05-18T11:46:06.172Z,7.00
2019-05-18T11:48:32.334Z,6.97
2019-05-18T11:50:58.174Z,6.75
2019-05-18T11:53:24.115Z,6.97
2019-05-18T11:55:50.027Z,7.92
2019-05-18T11:58:15.862Z,6.87
2019-05-18T12:00:41.704Z,6.65
2019-05-18T12:03:07.549Z,6.30
2019-05-18T12:05:33.373Z,6.33
2019-05-18T12:07:59.595Z,6.20
2019-05-18T12:10:25.454Z,7.45
2019-05-18T12:12:51.279Z,6.50
2019-05-18T12:15:17.551Z,5.17
2019-05-18T12:17:43.522Z,5.65
2019-05-18T12:20:10.763Z,5.72
2019-05-18T12:22:36.643Z,5.72
2019-05-18T12:25:04.879Z,5.55
2019-05-18T12:27:30.842Z,5.22
2019-05-18T12:29:56.667Z,5.45
2019-05-18T12:32:22.553Z,4.78
2019-05-18T12:34:49.243Z,4.85
2019-05-18T12:37:22.044Z,5.15
2019-05-18T12:39:48.604Z,4.75
2019-05-18T12:42:14.447Z,5.10
2019-05-18T12:44:40.289Z,5.37
2019-05-18T12:47:06.462Z,5.92
2019-05-18T12:49:32.360Z,4.90
2019-05-18T12:51:58.207Z,4.85
2019-05-18T12:54:29.559Z,4.65
2019-05-18T12:56:51.821Z,5.30
2019-05-18T12:59:17.749Z,4.67
2019-05-18T13:01:43.594Z,4.80
2019-05-18T13:04:09.421Z,4.78
2019-05-18T13:06:35.305Z,4.17
2019-05-18T13:09:01.254Z,4.55
2019-05-18T13:11:27.151Z,5.40
2019-05-18T13:13:52.967Z,4.30
2019-05-18T13:16:18.822Z,4.12
2019-05-18T13:18:44.669Z,7.12
2019-05-18T13:21:10.569Z,4.47
2019-05-18T13:23:36.513Z,5.85
2019-05-18T13:26:02.359Z,4.30
2019-05-18T13:28:28.287Z,5.00
2019-05-18T13:30:54.159Z,4.78
2019-05-18T13:33:19.990Z,4.97
2019-05-18T13:35:45.823Z,5.58
2019-05-18T13:38:11.675Z,5.00
2019-05-18T13:40:37.559Z,4.15
2019-05-18T13:43:03.517Z,5.35
2019-05-18T13:45:29.442Z,4.80
2019-05-18T13:47:55.260Z,4.65
2019-05-18T13:50:21.707Z,5.25
2019-05-18T13:52:47.939Z,4.78
2019-05-18T13:55:13.881Z,5.08
2019-05-18T13:57:39.793Z,4.62
2019-05-18T14:00:08.595Z,8.83
2019-05-18T14:02:34.396Z,5.47
2019-05-18T14:05:00.345Z,4.60
2019-05-18T14:07:26.167Z,4.55
2019-05-18T14:09:52.357Z,4.72
2019-05-18T14:12:18.216Z,4.50
2019-05-18T14:14:45.315Z,4.05
2019-05-18T14:17:11.251Z,5.90
2019-05-18T14:19:37.365Z,5.55
2019-05-18T14:22:03.220Z,4.83
2019-05-18T14:24:29.280Z,4.72
2019-05-18T14:26:55.179Z,4.50
2019-05-18T14:29:21.013Z,4.22
2019-05-18T14:31:46.867Z,4.03
2019-05-18T14:34:13.208Z,5.10
2019-05-18T14:36:39.086Z,5.62
2019-05-18T14:39:05.053Z,3.85
2019-05-18T14:41:30.881Z,4.45
2019-05-18T14:43:56.733Z,4.25
2019-05-18T14:46:22.565Z,4.65
2019-05-18T14:48:48.407Z,4.53
2019-05-18T14:51:14.252Z,4.37
2019-05-18T14:53:40.085Z,5.28
2019-05-18T14:56:14.958Z,4.17
2019-05-18T14:58:40.815Z,5.25
2019-05-18T15:01:06.763Z,4.60
2019-05-18T15:03:32.692Z,4.33
2019-05-18T15:05:58.585Z,4.92
2019-05-18T15:08:24.457Z,4.62
2019-05-18T15:10:50.395Z,5.33
2019-05-18T15:13:16.297Z,6.97
2019-05-18T15:15:42.166Z,5.60
2019-05-18T15:18:07.990Z,4.55
2019-05-18T15:20:33.904Z,6.95
2019-05-18T15:22:59.816Z,7.80
2019-05-18T15:25:25.663Z,5.08
2019-05-18T15:27:51.484Z,5.95
2019-05-18T15:30:17.645Z,4.62
2019-05-18T15:32:43.488Z,6.37
2019-05-18T15:35:09.463Z,4.60
2019-05-18T15:37:37.124Z,3.92
2019-05-18T15:40:04.445Z,4.45
2019-05-18T15:42:30.402Z,4.95
2019-05-18T15:44:56.313Z,5.00
2019-05-18T15:47:22.143Z,4.50
2019-05-18T15:49:47.990Z,7.62
2019-05-18T15:52:13.824Z,5.47
2019-05-18T15:54:39.709Z,3.67
2019-05-18T15:57:05.551Z,4.30
2019-05-18T15:59:31.397Z,3.45
2019-05-18T16:01:57.216Z,3.17
2019-05-18T16:04:23.111Z,3.65
2019-05-18T16:06:49.310Z,3.90
2019-05-18T16:09:15.164Z,3.70
2019-05-18T16:11:40.987Z,3.08
2019-05-18T16:14:06.887Z,6.17
2019-05-18T16:16:32.866Z,4.50
2019-05-18T16:18:58.737Z,8.30
2019-05-18T16:21:24.707Z,7.35
2019-05-18T16:23:50.682Z,5.12
2019-05-18T16:26:21.576Z,3.20
2019-05-18T16:28:44.320Z,3.72
2019-05-18T16:31:10.366Z,4.42
2019-05-18T16:33:36.326Z,3.62
2019-05-18T16:36:02.565Z,3.87
2019-05-18T16:38:28.548Z,4.17
2019-05-18T16:40:56.349Z,3.85
2019-05-18T16:43:22.315Z,3.65
2019-05-18T16:45:48.322Z,3.40
2019-05-18T16:48:14.170Z,4.30
2019-05-18T16:50:40.370Z,3.58
2019-05-18T16:53:06.299Z,3.62
2019-05-18T16:55:32.502Z,4.12
2019-05-18T16:57:58.450Z,6.50
2019-05-18T17:00:24.458Z,5.35
2019-05-18T17:02:50.559Z,4.90
2019-05-18T17:05:16.644Z,4.62
2019-05-18T17:07:42.607Z,4.37
2019-05-18T17:10:10.002Z,4.30
2019-05-18T17:12:35.911Z,4.50
2019-05-18T17:15:06.462Z,6.00
2019-05-18T17:17:35.252Z,4.70
2019-05-18T17:20:00.160Z,5.47
2019-05-18T17:22:26.322Z,4.95
2019-05-18T17:24:52.398Z,5.20
2019-05-18T17:27:18.271Z,4.58
2019-05-18T17:29:44.166Z,5.47
2019-05-18T17:32:12.552Z,6.22
2019-05-18T17:34:38.672Z,7.78
2019-05-18T17:37:04.766Z,4.70
2019-05-18T17:39:30.787Z,6.75
2019-05-18T17:41:56.688Z,5.42
2019-05-18T17:44:22.911Z,4.05
2019-05-18T17:46:50.474Z,4.83
2019-05-18T17:49:27.985Z,5.45
2019-05-18T17:51:44.134Z,6.75
2019-05-18T17:54:10.032Z,4.45
2019-05-18T17:56:36.077Z,5.00
2019-05-18T17:59:02.250Z,4.50
2019-05-18T18:01:28.373Z,6.72
2019-05-18T18:03:54.415Z,5.35
2019-05-18T18:06:20.397Z,6.75
2019-05-18T18:08:46.371Z,6.03
2019-05-18T18:11:12.268Z,6.10
2019-05-18T18:13:38.169Z,4.00
2019-05-18T18:16:04.065Z,6.12
2019-05-18T18:18:30.112Z,5.30
2019-05-18T18:20:56.096Z,5.47
2019-05-18T18:23:22.115Z,4.75
2019-05-18T18:25:48.014Z,6.28
2019-05-18T18:28:13.907Z,5.72
2019-05-18T18:30:39.804Z,4.97
2019-05-18T18:33:06.829Z,5.53
2019-05-18T18:35:35.707Z,5.75
2019-05-18T18:38:01.557Z,6.47
2019-05-18T18:40:27.978Z,6.33
2019-05-18T18:42:53.968Z,9.15
2019-05-18T18:45:20.129Z,5.90
2019-05-18T18:47:46.104Z,5.62
2019-05-18T18:50:12.183Z,6.50
2019-05-18T18:52:38.042Z,5.37
2019-05-18T18:55:05.666Z,4.95
2019-05-18T18:57:40.805Z,4.95
2019-05-18T18:59:59.344Z,5.33
2019-05-18T19:02:25.167Z,5.85
2019-05-18T19:04:50.997Z,6.28
2019-05-18T19:07:16.866Z,4.65
2019-05-18T19:09:42.693Z,5.15
2019-05-18T19:12:08.609Z,6.17
2019-05-18T19:14:34.444Z,6.05
2019-05-18T19:17:00.620Z,6.58
2019-05-18T19:19:26.461Z,8.13
2019-05-18T19:21:52.671Z,8.68
2019-05-18T19:24:19.394Z,5.95
2019-05-18T19:26:45.286Z,6.85
2019-05-18T19:29:11.229Z,6.15
2019-05-18T19:31:37.172Z,6.53
2019-05-18T19:34:03.116Z,7.92
2019-05-18T19:36:29.046Z,8.53
2019-05-18T19:38:54.863Z,6.95
2019-05-18T19:41:20.725Z,6.40
2019-05-18T19:43:46.862Z,6.92
2019-05-18T19:46:12.714Z,6.00
2019-05-18T19:48:38.658Z,6.87
2019-05-18T19:51:04.484Z,7.45
2019-05-18T19:53:30.406Z,7.50
2019-05-18T19:55:56.688Z,9.65
2019-05-18T19:58:22.537Z,8.03
2019-05-18T20:00:48.354Z,10.32
2019-05-18T20:03:14.233Z,8.90
2019-05-18T20:05:40.054Z,8.10
2019-05-18T20:08:05.932Z,9.93
2019-05-18T20:10:31.876Z,10.15
2019-05-18T20:12:58.888Z,9.85
2019-05-18T20:15:24.718Z,9.18
2019-05-18T20:17:50.550Z,9.15
2019-05-18T20:20:16.677Z,10.05
2019-05-18T20:22:42.528Z,9.60
2019-05-18T20:25:08.556Z,9.10
2019-05-18T20:27:34.400Z,9.08
2019-05-18T20:30:00.224Z,9.13
2019-05-18T20:32:26.065Z,10.45
2019-05-18T20:34:51.880Z,8.40
2019-05-18T20:37:17.734Z,9.03
2019-05-18T20:39:43.557Z,7.60
2019-05-18T20:42:09.396Z,8.28
2019-05-18T20:44:35.279Z,8.18
2019-05-18T20:47:01.183Z,7.92
2019-05-18T20:49:27.033Z,7.65
2019-05-18T20:51:52.986Z,8.13
2019-05-18T20:54:18.849Z,8.23
2019-05-18T20:56:44.783Z,9.80
2019-05-18T20:59:10.731Z,8.45
2019-05-18T21:01:37.078Z,9.10
2019-05-18T21:04:02.910Z,10.43
2019-05-18T21:06:28.851Z,9.98
2019-05-18T21:08:54.707Z,12.85
2019-05-18T21:11:20.539Z,11.28
2019-05-18T21:13:46.410Z,11.33
2019-05-18T21:16:12.305Z,11.18
2019-05-18T21:18:38.147Z,12.45
2019-05-18T21:21:03.968Z,12.70
2019-05-18T21:23:29.823Z,13.18
2019-05-18T21:25:55.950Z,12.60
2019-05-18T21:28:21.810Z,14.00
2019-05-18T21:30:47.731Z,14.33
2019-05-18T21:33:13.571Z,12.63
2019-05-18T21:35:39.773Z,11.68
2019-05-18T21:38:06.091Z,12.33
2019-05-18T21:40:31.954Z,13.50
2019-05-18T21:42:57.787Z,12.10
2019-05-18T21:45:23.611Z,12.55
2019-05-18T21:47:49.466Z,12.75
2019-05-18T21:50:15.408Z,12.80
2019-05-18T21:52:43.475Z,14.73
2019-05-18T21:55:09.419Z,14.40
2019-05-18T21:57:35.266Z,13.32
2019-05-18T22:00:01.233Z,13.48
2019-05-18T22:02:27.180Z,13.40
2019-05-18T22:04:53.003Z,13.68
2019-05-18T22:07:18.850Z,14.10
2019-05-18T22:09:44.698Z,14.78
2019-05-18T22:12:10.521Z,14.15
2019-05-18T22:14:36.346Z,15.25
2019-05-18T22:17:02.220Z,15.70
2019-05-18T22:19:28.140Z,15.18
2019-05-18T22:21:53.975Z,14.80
2019-05-18T22:24:19.830Z,16.77
2019-05-18T22:26:45.655Z,16.23
2019-05-18T22:29:11.486Z,15.40
2019-05-18T22:31:37.336Z,16.90
2019-05-18T22:34:03.271Z,17.98
2019-05-18T22:36:29.110Z,18.60
2019-05-18T22:38:55.379Z,16.90
2019-05-18T22:41:21.307Z,18.17
2019-05-18T22:43:47.232Z,17.25
2019-05-18T22:46:13.082Z,15.65
2019-05-18T22:48:41.602Z,16.85
2019-05-18T22:51:06.762Z,16.27
2019-05-18T22:53:32.605Z,17.00
2019-05-18T22:55:58.507Z,16.65
2019-05-18T22:58:24.363Z,15.28
2019-05-18T23:00:50.211Z,14.13
2019-05-18T23:03:16.026Z,15.50
2019-05-18T23:05:41.863Z,16.60
2019-05-18T23:08:07.675Z,15.35
2019-05-18T23:10:33.511Z,14.87
2019-05-18T23:12:59.364Z,16.70
2019-05-18T23:15:25.312Z,15.88
2019-05-18T23:17:51.151Z,16.37
2019-05-18T23:20:16.984Z,15.80
2019-05-18T23:22:42.813Z,13.62
2019-05-18T23:25:08.769Z,15.18
2019-05-18T23:27:35.001Z,12.53
2019-05-18T23:30:01.047Z,12.25
2019-05-18T23:32:26.876Z,12.20
2019-05-18T23:34:52.756Z,12.23
2019-05-18T23:37:18.582Z,12.63
2019-05-18T23:39:44.454Z,13.45
2019-05-18T23:42:10.283Z,13.13
2019-05-18T23:44:36.154Z,11.78
2019-05-18T23:47:01.982Z,13.05
2019-05-18T23:49:27.825Z,12.85
2019-05-18T23:51:53.658Z,13.40
2019-05-18T23:54:19.568Z,13.83
2019-05-18T23:56:45.416Z,14.07
2019-05-18T23:59:11.275Z,14.40
